sensor_id;sensor_type;location;lat;lon;timestamp;pressure;altitude;pressure_sealevel;temperature;humidity
27304;BME280;14791;52.392;13.092;2022-08-05T00:01:27;100634.17;;;32.53;29.63
27304;BME280;14791;52.392;13.092;2022-08-05T00:03:56;100637.08;;;32.49;29.74
27304;BME280;14791;52.392;13.092;2022-08-05T00:06:25;100639.23;;;32.47;29.90
27304;BME280;14791;52.392;13.092;2022-08-05T00:08:54;100643.59;;;32.42;29.94
27304;BME280;14791;52.392;13.092;2022-08-05T00:11:23;100647.42;;;32.41;29.90
27304;BME280;14791;52.392;13.092;2022-08-05T00:13:52;100642.38;;;32.38;30.01
27304;BME280;14791;52.392;13.092;2022-08-05T00:16:21;100640.72;;;32.37;30.15
27304;BME280;14791;52.392;13.092;2022-08-05T00:18:50;100642.55;;;32.34;30.15
27304;BME280;14791;52.392;13.092;2022-08-05T00:21:19;100637.81;;;32.32;30.08
27304;BME280;14791;52.392;13.092;2022-08-05T00:23:48;100640.23;;;32.29;30.24
27304;BME280;14791;52.392;13.092;2022-08-05T00:26:17;100650.62;;;32.24;30.33
27304;BME280;14791;52.392;13.092;2022-08-05T00:28:46;100653.27;;;32.19;30.41
27304;BME280;14791;52.392;13.092;2022-08-05T00:31:15;100669.41;;;32.13;30.63
27304;BME280;14791;52.392;13.092;2022-08-05T00:33:44;100676.35;;;32.04;30.79
27304;BME280;14791;52.392;13.092;2022-08-05T00:36:13;100666.73;;;31.94;30.88
27304;BME280;14791;52.392;13.092;2022-08-05T00:38:42;100675.83;;;31.83;31.05
27304;BME280;14791;52.392;13.092;2022-08-05T00:41:11;100670.63;;;31.75;31.32
27304;BME280;14791;52.392;13.092;2022-08-05T00:43:39;100672.64;;;31.68;31.47
27304;BME280;14791;52.392;13.092;2022-08-05T00:46:08;100664.17;;;31.60;31.49
27304;BME280;14791;52.392;13.092;2022-08-05T00:48:37;100662.66;;;31.55;31.63
27304;BME280;14791;52.392;13.092;2022-08-05T00:51:06;100666.66;;;31.50;31.77
27304;BME280;14791;52.392;13.092;2022-08-05T00:53:35;100668.45;;;31.44;32.03
27304;BME280;14791;52.392;13.092;2022-08-05T00:56:04;100673.04;;;31.41;32.09
27304;BME280;14791;52.392;13.092;2022-08-05T00:58:34;100677.33;;;31.37;32.38
27304;BME280;14791;52.392;13.092;2022-08-05T01:01:03;100675.27;;;31.32;32.57
27304;BME280;14791;52.392;13.092;2022-08-05T01:03:32;100666.31;;;31.28;32.52
27304;BME280;14791;52.392;13.092;2022-08-05T01:06:01;100670.31;;;31.23;32.84
27304;BME280;14791;52.392;13.092;2022-08-05T01:08:30;100681.65;;;31.14;32.88
27304;BME280;14791;52.392;13.092;2022-08-05T01:11:09;100696.38;;;31.08;32.93
27304;BME280;14791;52.392;13.092;2022-08-05T01:14:09;100676.32;;;31.01;32.97
27304;BME280;14791;52.392;13.092;2022-08-05T01:16:51;100690.18;;;30.94;33.14
27304;BME280;14791;52.392;13.092;2022-08-05T01:19:35;100693.70;;;30.83;33.31
27304;BME280;14791;52.392;13.092;2022-08-05T01:25:23;100699.85;;;30.69;33.71
27304;BME280;14791;52.392;13.092;2022-08-05T01:31:25;100690.36;;;30.56;34.10
27304;BME280;14791;52.392;13.092;2022-08-05T01:33:52;100696.15;;;30.48;34.27
27304;BME280;14791;52.392;13.092;2022-08-05T01:36:23;100680.76;;;30.40;34.35
27304;BME280;14791;52.392;13.092;2022-08-05T01:38:54;100679.30;;;30.38;34.31
27304;BME280;14791;52.392;13.092;2022-08-05T01:41:24;100672.34;;;30.35;34.57
27304;BME280;14791;52.392;13.092;2022-08-05T01:43:55;100680.23;;;30.31;34.55
27304;BME280;14791;52.392;13.092;2022-08-05T01:46:26;100672.64;;;30.27;34.63
27304;BME280;14791;52.392;13.092;2022-08-05T01:48:57;100657.37;;;30.24;34.89
27304;BME280;14791;52.392;13.092;2022-08-05T01:51:28;100662.27;;;30.22;35.21
27304;BME280;14791;52.392;13.092;2022-08-05T01:53:58;100675.09;;;30.19;35.44
27304;BME280;14791;52.392;13.092;2022-08-05T01:56:30;100664.23;;;30.15;35.28
27304;BME280;14791;52.392;13.092;2022-08-05T01:59:02;100664.23;;;30.15;35.60
27304;BME280;14791;52.392;13.092;2022-08-05T02:01:34;100674.42;;;30.15;35.74
27304;BME280;14791;52.392;13.092;2022-08-05T02:04:03;100674.84;;;30.11;35.94
27304;BME280;14791;52.392;13.092;2022-08-05T02:06:33;100674.14;;;30.07;35.96
27304;BME280;14791;52.392;13.092;2022-08-05T02:09:03;100669.63;;;30.03;36.15
27304;BME280;14791;52.392;13.092;2022-08-05T02:11:40;100680.23;;;30.00;36.26
27304;BME280;14791;52.392;13.092;2022-08-05T02:14:12;100680.98;;;29.98;36.34
27304;BME280;14791;52.392;13.092;2022-08-05T02:16:44;100664.09;;;29.94;36.25
27304;BME280;14791;52.392;13.092;2022-08-05T02:19:29;100662.09;;;29.92;36.45
27304;BME280;14791;52.392;13.092;2022-08-05T02:22:18;100680.53;;;29.92;36.35
27304;BME280;14791;52.392;13.092;2022-08-05T02:24:50;100673.02;;;29.89;36.41
27304;BME280;14791;52.392;13.092;2022-08-05T02:27:21;100654.34;;;29.82;36.56
27304;BME280;14791;52.392;13.092;2022-08-05T02:29:52;100658.76;;;29.83;36.64
27304;BME280;14791;52.392;13.092;2022-08-05T02:32:22;100656.01;;;29.83;36.75
27304;BME280;14791;52.392;13.092;2022-08-05T02:34:52;100662.14;;;29.85;36.87
27304;BME280;14791;52.392;13.092;2022-08-05T02:37:22;100658.34;;;29.86;36.87
27304;BME280;14791;52.392;13.092;2022-08-05T02:39:52;100653.96;;;29.88;36.88
27304;BME280;14791;52.392;13.092;2022-08-05T02:42:22;100658.96;;;29.88;36.85
27304;BME280;14791;52.392;13.092;2022-08-05T02:44:51;100654.20;;;29.86;37.02
27304;BME280;14791;52.392;13.092;2022-08-05T02:47:21;100652.83;;;29.86;37.01
27304;BME280;14791;52.392;13.092;2022-08-05T02:49:52;100645.11;;;29.86;37.19
27304;BME280;14791;52.392;13.092;2022-08-05T02:52:21;100656.12;;;29.86;37.17
27304;BME280;14791;52.392;13.092;2022-08-05T02:54:51;100650.29;;;29.85;37.08
27304;BME280;14791;52.392;13.092;2022-08-05T02:57:21;100654.96;;;29.84;37.28
27304;BME280;14791;52.392;13.092;2022-08-05T02:59:50;100646.38;;;29.83;37.30
27304;BME280;14791;52.392;13.092;2022-08-05T03:02:23;100642.78;;;29.83;37.32
27304;BME280;14791;52.392;13.092;2022-08-05T03:04:54;100637.82;;;29.82;37.33
27304;BME280;14791;52.392;13.092;2022-08-05T03:07:25;100640.58;;;29.82;37.28
27304;BME280;14791;52.392;13.092;2022-08-05T03:09:54;100632.02;;;29.81;37.37
27304;BME280;14791;52.392;13.092;2022-08-05T03:12:34;100624.52;;;29.79;37.34
27304;BME280;14791;52.392;13.092;2022-08-05T03:15:06;100619.01;;;29.79;37.39
27304;BME280;14791;52.392;13.092;2022-08-05T03:17:36;100623.27;;;29.75;37.40
27304;BME280;14791;52.392;13.092;2022-08-05T03:20:06;100618.22;;;29.72;37.33
27304;BME280;14791;52.392;13.092;2022-08-05T03:22:35;100628.61;;;29.70;37.34
27304;BME280;14791;52.392;13.092;2022-08-05T03:25:05;100619.72;;;29.68;37.37
27304;BME280;14791;52.392;13.092;2022-08-05T03:27:35;100613.56;;;29.66;37.44
27304;BME280;14791;52.392;13.092;2022-08-05T03:30:04;100622.90;;;29.65;37.46
27304;BME280;14791;52.392;13.092;2022-08-05T03:32:34;100625.03;;;29.63;37.46
27304;BME280;14791;52.392;13.092;2022-08-05T03:35:04;100634.36;;;29.62;37.51
27304;BME280;14791;52.392;13.092;2022-08-05T03:37:34;100641.99;;;29.60;37.51
27304;BME280;14791;52.392;13.092;2022-08-05T03:40:03;100646.87;;;29.58;37.53
27304;BME280;14791;52.392;13.092;2022-08-05T03:42:34;100650.16;;;29.57;37.65
27304;BME280;14791;52.392;13.092;2022-08-05T03:45:03;100651.20;;;29.56;37.88
27304;BME280;14791;52.392;13.092;2022-08-05T03:47:32;100647.91;;;29.57;37.87
27304;BME280;14791;52.392;13.092;2022-08-05T03:50:01;100645.16;;;29.57;37.81
27304;BME280;14791;52.392;13.092;2022-08-05T03:52:33;100636.91;;;29.57;37.84
27304;BME280;14791;52.392;13.092;2022-08-05T03:55:06;100631.73;;;29.58;37.72
27304;BME280;14791;52.392;13.092;2022-08-05T03:57:38;100638.28;;;29.57;37.81
27304;BME280;14791;52.392;13.092;2022-08-05T04:00:10;100645.16;;;29.57;37.85
27304;BME280;14791;52.392;13.092;2022-08-05T04:02:41;100653.75;;;29.58;37.92
27304;BME280;14791;52.392;13.092;2022-08-05T04:05:11;100662.62;;;29.60;37.85
27304;BME280;14791;52.392;13.092;2022-08-05T04:07:42;100668.76;;;29.62;37.85
27304;BME280;14791;52.392;13.092;2022-08-05T04:10:11;100676.02;;;29.65;37.76
27304;BME280;14791;52.392;13.092;2022-08-05T04:12:41;100677.52;;;29.68;37.81
27304;BME280;14791;52.392;13.092;2022-08-05T04:15:10;100682.57;;;29.71;37.89
27304;BME280;14791;52.392;13.092;2022-08-05T04:17:39;100682.89;;;29.72;37.98
27304;BME280;14791;52.392;13.092;2022-08-05T04:20:17;100685.95;;;29.73;37.95
27304;BME280;14791;52.392;13.092;2022-08-05T04:22:46;100673.65;;;29.76;37.85
27304;BME280;14791;52.392;13.092;2022-08-05T04:25:15;100672.06;;;29.77;37.86
27304;BME280;14791;52.392;13.092;2022-08-05T04:27:44;100664.52;;;29.82;37.82
27304;BME280;14791;52.392;13.092;2022-08-05T04:30:13;100656.96;;;29.86;37.73
27304;BME280;14791;52.392;13.092;2022-08-05T04:32:42;100659.12;;;29.94;37.85
27304;BME280;14791;52.392;13.092;2022-08-05T04:35:11;100657.16;;;30.01;37.77
27304;BME280;14791;52.392;13.092;2022-08-05T04:37:40;100659.33;;;30.08;37.77
27304;BME280;14791;52.392;13.092;2022-08-05T04:40:10;100657.89;;;30.15;37.60
27304;BME280;14791;52.392;13.092;2022-08-05T04:42:38;100661.43;;;30.22;37.61
27304;BME280;14791;52.392;13.092;2022-08-05T04:45:08;100660.54;;;30.28;37.49
27304;BME280;14791;52.392;13.092;2022-08-05T04:47:37;100659.64;;;30.34;37.50
27304;BME280;14791;52.392;13.092;2022-08-05T04:50:06;100664.23;;;30.40;37.34
27304;BME280;14791;52.392;13.092;2022-08-05T04:52:35;100676.27;;;30.46;37.31
27304;BME280;14791;52.392;13.092;2022-08-05T04:55:05;100677.81;;;30.51;37.33
27304;BME280;14791;52.392;13.092;2022-08-05T04:57:34;100685.47;;;30.58;37.13
27304;BME280;14791;52.392;13.092;2022-08-05T05:00:04;100681.16;;;30.62;37.17
27304;BME280;14791;52.392;13.092;2022-08-05T05:02:33;100693.42;;;30.66;37.13
27304;BME280;14791;52.392;13.092;2022-08-05T05:05:02;100698.47;;;30.69;37.11
27304;BME280;14791;52.392;13.092;2022-08-05T05:07:31;100713.71;;;30.72;37.09
27304;BME280;14791;52.392;13.092;2022-08-05T05:10:00;100723.91;;;30.71;37.10
27304;BME280;14791;52.392;13.092;2022-08-05T05:12:31;100743.66;;;30.68;37.08
27304;BME280;14791;52.392;13.092;2022-08-05T05:15:00;100753.45;;;30.64;37.10
27304;BME280;14791;52.392;13.092;2022-08-05T05:17:37;100754.98;;;30.60;37.09
27304;BME280;14791;52.392;13.092;2022-08-05T05:20:07;100747.16;;;30.57;37.12
27304;BME280;14791;52.392;13.092;2022-08-05T05:22:36;100738.44;;;30.51;37.32
27304;BME280;14791;52.392;13.092;2022-08-05T05:25:06;100735.34;;;30.50;37.42
27304;BME280;14791;52.392;13.092;2022-08-05T05:27:36;100743.62;;;30.50;37.34
27304;BME280;14791;52.392;13.092;2022-08-05T05:30:06;100740.86;;;30.50;37.51
27304;BME280;14791;52.392;13.092;2022-08-05T05:32:35;100731.22;;;30.50;37.60
27304;BME280;14791;52.392;13.092;2022-08-05T05:35:04;100731.00;;;30.51;37.65
27304;BME280;14791;52.392;13.092;2022-08-05T05:37:33;100748.16;;;30.53;37.72
27304;BME280;14791;52.392;13.092;2022-08-05T05:40:02;100772.71;;;30.55;37.82
27304;BME280;14791;52.392;13.092;2022-08-05T05:42:31;100797.52;;;30.55;37.62
27304;BME280;14791;52.392;13.092;2022-08-05T05:45:00;100818.19;;;30.55;37.69
27304;BME280;14791;52.392;13.092;2022-08-05T05:47:29;100824.78;;;30.54;37.72
27304;BME280;14791;52.392;13.092;2022-08-05T05:49:58;100816.43;;;30.51;37.83
27304;BME280;14791;52.392;13.092;2022-08-05T05:52:27;100828.20;;;30.49;38.06
27304;BME280;14791;52.392;13.092;2022-08-05T05:55:01;100837.89;;;30.43;38.19
27304;BME280;14791;52.392;13.092;2022-08-05T05:57:30;100846.31;;;30.39;38.29
27304;BME280;14791;52.392;13.092;2022-08-05T05:59:59;100839.55;;;30.35;38.56
27304;BME280;14791;52.392;13.092;2022-08-05T06:02:27;100847.19;;;30.33;38.25
27304;BME280;14791;52.392;13.092;2022-08-05T06:04:56;100857.91;;;30.31;38.67
27304;BME280;14791;52.392;13.092;2022-08-05T06:07:25;100866.09;;;30.29;38.79
27304;BME280;14791;52.392;13.092;2022-08-05T06:09:54;100869.59;;;30.27;38.84
27304;BME280;14791;52.392;13.092;2022-08-05T06:12:23;100875.61;;;30.26;38.68
27304;BME280;14791;52.392;13.092;2022-08-05T06:14:52;100866.72;;;30.24;39.00
27304;BME280;14791;52.392;13.092;2022-08-05T06:17:21;100858.88;;;30.21;39.24
27304;BME280;14791;52.392;13.092;2022-08-05T06:19:49;100856.58;;;30.18;39.44
27304;BME280;14791;52.392;13.092;2022-08-05T06:22:24;100841.13;;;30.17;39.50
27304;BME280;14791;52.392;13.092;2022-08-05T06:24:53;100847.69;;;30.16;39.46
27304;BME280;14791;52.392;13.092;2022-08-05T06:27:22;100839.75;;;30.17;39.68
27304;BME280;14791;52.392;13.092;2022-08-05T06:29:51;100843.43;;;30.20;39.92
27304;BME280;14791;52.392;13.092;2022-08-05T06:32:20;100842.05;;;30.20;39.90
27304;BME280;14791;52.392;13.092;2022-08-05T06:34:48;100845.73;;;30.23;40.03
27304;BME280;14791;52.392;13.092;2022-08-05T06:37:17;100831.66;;;30.22;40.31
27304;BME280;14791;52.392;13.092;2022-08-05T06:39:46;100835.38;;;30.25;40.39
27304;BME280;14791;52.392;13.092;2022-08-05T06:42:15;100833.87;;;30.29;40.31
27304;BME280;14791;52.392;13.092;2022-08-05T06:44:44;100834.67;;;30.37;40.42
27304;BME280;14791;52.392;13.092;2022-08-05T06:47:13;100830.80;;;30.44;40.39
27304;BME280;14791;52.392;13.092;2022-08-05T06:49:42;100829.66;;;30.52;40.34
27304;BME280;14791;52.392;13.092;2022-08-05T06:52:11;100847.83;;;30.60;40.28
27304;BME280;14791;52.392;13.092;2022-08-05T06:54:39;100846.11;;;30.65;39.96
27304;BME280;14791;52.392;13.092;2022-08-05T06:57:08;100850.24;;;30.65;39.91
27304;BME280;14791;52.392;13.092;2022-08-05T06:59:39;100856.80;;;30.64;39.90
27304;BME280;14791;52.392;13.092;2022-08-05T07:02:08;100873.50;;;30.60;40.02
27304;BME280;14791;52.392;13.092;2022-08-05T07:04:37;100882.95;;;30.55;40.06
27304;BME280;14791;52.392;13.092;2022-08-05T07:07:06;100893.50;;;30.49;40.12
27304;BME280;14791;52.392;13.092;2022-08-05T07:09:35;100912.91;;;30.45;40.23
27304;BME280;14791;52.392;13.092;2022-08-05T07:12:04;100909.98;;;30.40;40.38
27304;BME280;14791;52.392;13.092;2022-08-05T07:14:33;100897.71;;;30.36;40.02
27304;BME280;14791;52.392;13.092;2022-08-05T07:17:20;100895.95;;;30.32;40.36
27304;BME280;14791;52.392;13.092;2022-08-05T07:19:50;100890.89;;;30.22;40.51
27304;BME280;14791;52.392;13.092;2022-08-05T07:22:20;100879.81;;;30.13;40.64
27304;BME280;14791;52.392;13.092;2022-08-05T07:24:49;100870.53;;;30.07;40.89
27304;BME280;14791;52.392;13.092;2022-08-05T07:27:21;100858.17;;;30.01;40.90
27304;BME280;14791;52.392;13.092;2022-08-05T07:29:51;100869.42;;;29.93;40.99
27304;BME280;14791;52.392;13.092;2022-08-05T07:32:20;100877.01;;;29.81;41.23
27304;BME280;14791;52.392;13.092;2022-08-05T07:34:49;100877.23;;;29.73;41.35
27304;BME280;14791;52.392;13.092;2022-08-05T07:37:19;100879.13;;;29.66;41.56
27304;BME280;14791;52.392;13.092;2022-08-05T07:39:48;100880.32;;;29.61;41.73
27304;BME280;14791;52.392;13.092;2022-08-05T07:42:17;100868.59;;;29.56;41.95
27304;BME280;14791;52.392;13.092;2022-08-05T07:44:46;100849.97;;;29.52;42.06
27304;BME280;14791;52.392;13.092;2022-08-05T07:47:16;100857.39;;;29.51;42.44
27304;BME280;14791;52.392;13.092;2022-08-05T07:49:45;100850.62;;;29.47;42.81
27304;BME280;14791;52.392;13.092;2022-08-05T07:52:13;100815.20;;;29.41;42.95
27304;BME280;14791;52.392;13.092;2022-08-05T07:54:42;100824.31;;;29.35;42.81
27304;BME280;14791;52.392;13.092;2022-08-05T07:57:11;100846.36;;;29.29;43.01
27304;BME280;14791;52.392;13.092;2022-08-05T07:59:40;100841.81;;;29.18;43.13
27304;BME280;14791;52.392;13.092;2022-08-05T08:02:10;100818.77;;;29.13;43.27
27304;BME280;14791;52.392;13.092;2022-08-05T08:04:39;100801.01;;;29.09;43.56
27304;BME280;14791;52.392;13.092;2022-08-05T08:07:07;100825.45;;;29.08;43.46
27304;BME280;14791;52.392;13.092;2022-08-05T08:09:36;100836.63;;;29.06;43.52
27304;BME280;14791;52.392;13.092;2022-08-05T08:12:05;100823.11;;;29.04;43.46
27304;BME280;14791;52.392;13.092;2022-08-05T08:14:34;100826.83;;;29.08;43.59
27304;BME280;14791;52.392;13.092;2022-08-05T08:17:03;100849.66;;;29.15;43.54
27304;BME280;14791;52.392;13.092;2022-08-05T08:19:34;100857.37;;;29.22;43.52
27304;BME280;14791;52.392;13.092;2022-08-05T08:22:03;100857.86;;;29.28;43.55
27304;BME280;14791;52.392;13.092;2022-08-05T08:24:32;100855.44;;;29.36;43.52
27304;BME280;14791;52.392;13.092;2022-08-05T08:27:02;100869.15;;;29.42;43.53
27304;BME280;14791;52.392;13.092;2022-08-05T08:29:32;100869.67;;;29.48;43.54
27304;BME280;14791;52.392;13.092;2022-08-05T08:32:01;100877.37;;;29.56;43.46
27304;BME280;14791;52.392;13.092;2022-08-05T08:34:30;100885.62;;;29.62;43.47
27304;BME280;14791;52.392;13.092;2022-08-05T08:36:59;100895.64;;;29.66;43.40
27304;BME280;14791;52.392;13.092;2022-08-05T08:39:28;100914.84;;;29.70;43.33
27304;BME280;14791;52.392;13.092;2022-08-05T08:41:57;100924.27;;;29.72;43.33
27304;BME280;14791;52.392;13.092;2022-08-05T08:44:31;100925.20;;;29.75;43.25
27304;BME280;14791;52.392;13.092;2022-08-05T08:47:02;100928.58;;;29.77;43.27
27304;BME280;14791;52.392;13.092;2022-08-05T08:49:33;100928.98;;;29.80;43.28
27304;BME280;14791;52.392;13.092;2022-08-05T08:52:18;100930.55;;;29.85;43.19
27304;BME280;14791;52.392;13.092;2022-08-05T08:54:47;100933.82;;;29.92;43.12
27304;BME280;14791;52.392;13.092;2022-08-05T08:57:18;100934.98;;;29.93;43.01
27304;BME280;14791;52.392;13.092;2022-08-05T09:00:01;100933.17;;;29.96;42.99
27304;BME280;14791;52.392;13.092;2022-08-05T09:02:24;100940.14;;;29.99;42.88
27304;BME280;14791;52.392;13.092;2022-08-05T09:04:53;100939.30;;;29.98;42.91
27304;BME280;14791;52.392;13.092;2022-08-05T09:07:22;100942.16;;;30.01;42.92
27304;BME280;14791;52.392;13.092;2022-08-05T09:09:51;100943.72;;;30.06;42.96
27304;BME280;14791;52.392;13.092;2022-08-05T09:12:20;100937.77;;;30.09;42.98
27304;BME280;14791;52.392;13.092;2022-08-05T09:14:49;100940.41;;;30.13;42.97
27304;BME280;14791;52.392;13.092;2022-08-05T09:17:18;100930.50;;;30.21;42.99
27304;BME280;14791;52.392;13.092;2022-08-05T09:19:47;100928.59;;;30.28;42.74
27304;BME280;14791;52.392;13.092;2022-08-05T09:22:16;100928.02;;;30.36;42.75
27304;BME280;14791;52.392;13.092;2022-08-05T09:24:56;100937.95;;;30.43;42.70
27304;BME280;14791;52.392;13.092;2022-08-05T09:27:34;100940.89;;;30.48;42.60
27304;BME280;14791;52.392;13.092;2022-08-05T09:30:05;100933.34;;;30.53;42.69
27304;BME280;14791;52.392;13.092;2022-08-05T09:32:36;100914.64;;;30.55;42.42
27304;BME280;14791;52.392;13.092;2022-08-05T09:35:10;100902.44;;;30.60;42.23
27304;BME280;14791;52.392;13.092;2022-08-05T09:37:50;100920.44;;;30.63;42.10
27304;BME280;14791;52.392;13.092;2022-08-05T09:40:34;100908.88;;;30.63;42.01
27304;BME280;14791;52.392;13.092;2022-08-05T09:43:05;100915.44;;;30.62;42.10
27304;BME280;14791;52.392;13.092;2022-08-05T09:45:37;100897.44;;;30.60;42.44
27304;BME280;14791;52.392;13.092;2022-08-05T09:48:25;100885.66;;;30.62;42.88
27304;BME280;14791;52.392;13.092;2022-08-05T09:51:00;100871.05;;;30.61;42.95
27304;BME280;14791;52.392;13.092;2022-08-05T09:53:45;100875.01;;;30.56;42.77
27304;BME280;14791;52.392;13.092;2022-08-05T09:56:01;100890.83;;;30.51;42.62
27304;BME280;14791;52.392;13.092;2022-08-05T09:58:30;100851.55;;;30.47;42.60
27304;BME280;14791;52.392;13.092;2022-08-05T10:01:02;100846.48;;;30.44;42.90
27304;BME280;14791;52.392;13.092;2022-08-05T10:03:32;100889.73;;;30.43;42.94
27304;BME280;14791;52.392;13.092;2022-08-05T10:06:07;100902.97;;;30.44;43.14
27304;BME280;14791;52.392;13.092;2022-08-05T10:08:37;100898.52;;;30.43;43.05
27304;BME280;14791;52.392;13.092;2022-08-05T10:11:14;100891.33;;;30.42;42.91
27304;BME280;14791;52.392;13.092;2022-08-05T10:13:44;100907.11;;;30.44;42.74
27304;BME280;14791;52.392;13.092;2022-08-05T10:16:33;100908.16;;;30.43;42.70
27304;BME280;14791;52.392;13.092;2022-08-05T10:19:02;100925.02;;;30.44;42.84
27304;BME280;14791;52.392;13.092;2022-08-05T10:21:31;100926.22;;;30.39;43.28
27304;BME280;14791;52.392;13.092;2022-08-05T10:24:00;100930.86;;;30.38;43.43
27304;BME280;14791;52.392;13.092;2022-08-05T10:26:29;100946.80;;;30.36;43.56
27304;BME280;14791;52.392;13.092;2022-08-05T10:28:58;100953.35;;;30.35;43.45
27304;BME280;14791;52.392;13.092;2022-08-05T10:31:28;100940.02;;;30.32;43.46
27304;BME280;14791;52.392;13.092;2022-08-05T10:33:57;100937.81;;;30.31;43.64
27304;BME280;14791;52.392;13.092;2022-08-05T10:36:26;100933.98;;;30.33;43.33
27304;BME280;14791;52.392;13.092;2022-08-05T10:39:04;100921.67;;;30.35;43.68
27304;BME280;14791;52.392;13.092;2022-08-05T10:41:35;100925.89;;;30.38;43.54
27304;BME280;14791;52.392;13.092;2022-08-05T10:44:10;100933.02;;;30.36;43.61
27304;BME280;14791;52.392;13.092;2022-08-05T10:46:51;100924.96;;;30.35;43.61
27304;BME280;14791;52.392;13.092;2022-08-05T10:49:21;100911.64;;;30.31;43.49
27304;BME280;14791;52.392;13.092;2022-08-05T10:51:55;100906.88;;;30.29;43.17
27304;BME280;14791;52.392;13.092;2022-08-05T10:54:47;100891.39;;;30.28;43.23
27304;BME280;14791;52.392;13.092;2022-08-05T10:57:27;100891.72;;;30.29;43.21
27304;BME280;14791;52.392;13.092;2022-08-05T11:00:17;100901.45;;;30.32;42.91
27304;BME280;14791;52.392;13.092;2022-08-05T11:05:38;100911.23;;;30.44;42.67
27304;BME280;14791;52.392;13.092;2022-08-05T11:08:08;100927.20;;;30.51;42.71
27304;BME280;14791;52.392;13.092;2022-08-05T11:10:38;100931.38;;;30.60;42.60
27304;BME280;14791;52.392;13.092;2022-08-05T11:13:09;100933.86;;;30.68;42.55
27304;BME280;14791;52.392;13.092;2022-08-05T11:15:38;100931.27;;;30.73;42.52
27304;BME280;14791;52.392;13.092;2022-08-05T11:18:22;100927.63;;;30.80;42.22
27304;BME280;14791;52.392;13.092;2022-08-05T11:20:52;100926.21;;;30.86;42.19
27304;BME280;14791;52.392;13.092;2022-08-05T11:28:51;100928.36;;;31.09;41.54
27304;BME280;14791;52.392;13.092;2022-08-05T11:31:26;100929.64;;;31.23;41.19
27304;BME280;14791;52.392;13.092;2022-08-05T11:33:55;100922.92;;;31.37;41.09
27304;BME280;14791;52.392;13.092;2022-08-05T11:36:50;100923.48;;;31.55;40.86
27304;BME280;14791;52.392;13.092;2022-08-05T11:39:45;100926.56;;;31.74;40.52
27304;BME280;14791;52.392;13.092;2022-08-05T11:41:51;100922.95;;;31.92;40.10
27304;BME280;14791;52.392;13.092;2022-08-05T11:44:20;100927.56;;;32.08;39.68
27304;BME280;14791;52.392;13.092;2022-08-05T11:46:53;100934.60;;;32.22;39.35
27304;BME280;14791;52.392;13.092;2022-08-05T11:49:22;100944.55;;;32.32;38.91
27304;BME280;14791;52.392;13.092;2022-08-05T11:51:52;100941.47;;;32.40;38.68
27304;BME280;14791;52.392;13.092;2022-08-05T11:54:24;100938.17;;;32.50;38.52
27304;BME280;14791;52.392;13.092;2022-08-05T11:56:55;100936.77;;;32.59;38.45
27304;BME280;14791;52.392;13.092;2022-08-05T11:59:26;100935.03;;;32.68;38.17
27304;BME280;14791;52.392;13.092;2022-08-05T12:01:58;100933.07;;;32.77;38.15
27304;BME280;14791;52.392;13.092;2022-08-05T12:04:36;100932.87;;;32.91;38.13
27304;BME280;14791;52.392;13.092;2022-08-05T12:06:59;100924.19;;;33.08;38.13
27304;BME280;14791;52.392;13.092;2022-08-05T12:09:29;100929.19;;;33.32;37.99
27304;BME280;14791;52.392;13.092;2022-08-05T12:11:59;100940.05;;;33.57;37.62
27304;BME280;14791;52.392;13.092;2022-08-05T12:14:41;100932.70;;;33.89;37.57
27304;BME280;14791;52.392;13.092;2022-08-05T12:17:11;100929.48;;;34.35;37.32
27304;BME280;14791;52.392;13.092;2022-08-05T12:19:49;100922.02;;;34.81;36.78
27304;BME280;14791;52.392;13.092;2022-08-05T12:22:20;100925.20;;;35.21;36.08
27304;BME280;14791;52.392;13.092;2022-08-05T12:24:50;100921.80;;;35.55;35.37
27304;BME280;14791;52.392;13.092;2022-08-05T12:27:25;100925.70;;;35.96;34.81
27304;BME280;14791;52.392;13.092;2022-08-05T12:30:05;100930.05;;;36.33;34.25
27304;BME280;14791;52.392;13.092;2022-08-05T12:32:43;100939.11;;;36.75;33.71
27304;BME280;14791;52.392;13.092;2022-08-05T12:35:13;100936.91;;;37.07;33.07
27304;BME280;14791;52.392;13.092;2022-08-05T12:37:44;100941.27;;;37.35;32.67
27304;BME280;14791;52.392;13.092;2022-08-05T12:40:15;100948.17;;;37.65;32.32
27304;BME280;14791;52.392;13.092;2022-08-05T12:42:45;100954.70;;;37.88;31.86
27304;BME280;14791;52.392;13.092;2022-08-05T12:45:14;100967.90;;;38.06;31.57
27304;BME280;14791;52.392;13.092;2022-08-05T12:47:43;100954.55;;;38.18;31.24
27304;BME280;14791;52.392;13.092;2022-08-05T12:50:14;100954.30;;;38.22;30.97
27304;BME280;14791;52.392;13.092;2022-08-05T12:52:55;100955.94;;;38.13;30.83
27304;BME280;14791;52.392;13.092;2022-08-05T12:55:28;100954.73;;;37.99;30.62
27304;BME280;14791;52.392;13.092;2022-08-05T12:57:58;100951.84;;;37.78;30.57
27304;BME280;14791;52.392;13.092;2022-08-05T13:00:28;100942.83;;;37.56;30.69
27304;BME280;14791;52.392;13.092;2022-08-05T13:02:59;100939.59;;;37.32;30.61
27304;BME280;14791;52.392;13.092;2022-08-05T13:05:28;100951.09;;;37.06;30.69
27304;BME280;14791;52.392;13.092;2022-08-05T13:07:57;100948.16;;;36.90;30.88
27304;BME280;14791;52.392;13.092;2022-08-05T13:10:26;100943.23;;;37.00;31.02
27304;BME280;14791;52.392;13.092;2022-08-05T13:12:57;100940.53;;;37.08;30.92
27304;BME280;14791;52.392;13.092;2022-08-05T13:15:30;100950.30;;;37.10;30.70